sensor_id;sensor_type;location;lat;lon;timestamp;temperature;humidity
75931;DHT22;64609;47.052;15.462;2023-06-14T00:01:41;20.00;63.00
75931;DHT22;64609;47.052;15.462;2023-06-14T00:04:06;20.00;62.90
75931;DHT22;64609;47.052;15.462;2023-06-14T00:06:34;20.00;62.70
75931;DHT22;64609;47.052;15.462;2023-06-14T00:08:59;20.10;62.60
75931;DHT22;64609;47.052;15.462;2023-06-14T00:11:25;20.10;62.50
75931;DHT22;64609;47.052;15.462;2023-06-14T00:13:52;20.00;62.30
75931;DHT22;64609;47.052;15.462;2023-06-14T00:16:18;20.00;62.10
75931;DHT22;64609;47.052;15.462;2023-06-14T00:18:45;20.00;62.40
75931;DHT22;64609;47.052;15.462;2023-06-14T00:21:11;19.90;62.60
75931;DHT22;64609;47.052;15.462;2023-06-14T00:23:37;20.00;62.90
75931;DHT22;64609;47.052;15.462;2023-06-14T00:26:03;20.00;62.90
75931;DHT22;64609;47.052;15.462;2023-06-14T00:28:29;19.90;63.00
75931;DHT22;64609;47.052;15.462;2023-06-14T00:30:54;19.90;63.10
75931;DHT22;64609;47.052;15.462;2023-06-14T00:33:20;19.90;63.20
75931;DHT22;64609;47.052;15.462;2023-06-14T00:35:46;19.90;63.20
75931;DHT22;64609;47.052;15.462;2023-06-14T00:38:12;19.90;63.30
75931;DHT22;64609;47.052;15.462;2023-06-14T00:40:38;19.90;63.40
75931;DHT22;64609;47.052;15.462;2023-06-14T00:43:04;19.90;63.40
75931;DHT22;64609;47.052;15.462;2023-06-14T00:45:29;19.80;63.50
75931;DHT22;64609;47.052;15.462;2023-06-14T00:47:57;19.80;63.70
75931;DHT22;64609;47.052;15.462;2023-06-14T00:50:24;19.80;63.70
75931;DHT22;64609;47.052;15.462;2023-06-14T00:52:50;19.80;63.70
75931;DHT22;64609;47.052;15.462;2023-06-14T00:55:16;19.80;63.90
75931;DHT22;64609;47.052;15.462;2023-06-14T00:57:41;19.80;63.90
75931;DHT22;64609;47.052;15.462;2023-06-14T01:00:08;19.70;63.50
75931;DHT22;64609;47.052;15.462;2023-06-14T01:02:38;19.70;63.40
75931;DHT22;64609;47.052;15.462;2023-06-14T01:05:05;19.70;63.70
75931;DHT22;64609;47.052;15.462;2023-06-14T01:07:55;19.70;64.30
75931;DHT22;64609;47.052;15.462;2023-06-14T01:13:12;19.70;66.00
75931;DHT22;64609;47.052;15.462;2023-06-14T01:15:39;19.70;66.40
75931;DHT22;64609;47.052;15.462;2023-06-14T01:18:06;19.70;66.50
75931;DHT22;64609;47.052;15.462;2023-06-14T01:20:33;19.70;66.90
75931;DHT22;64609;47.052;15.462;2023-06-14T01:23:02;19.70;67.10
75931;DHT22;64609;47.052;15.462;2023-06-14T01:25:27;19.70;67.40
75931;DHT22;64609;47.052;15.462;2023-06-14T01:28:00;19.60;67.50
75931;DHT22;64609;47.052;15.462;2023-06-14T01:30:29;19.60;67.30
75931;DHT22;64609;47.052;15.462;2023-06-14T01:32:56;19.50;67.40
75931;DHT22;64609;47.052;15.462;2023-06-14T01:35:23;19.40;67.70
75931;DHT22;64609;47.052;15.462;2023-06-14T01:37:50;19.40;68.00
75931;DHT22;64609;47.052;15.462;2023-06-14T01:40:18;19.50;67.80
75931;DHT22;64609;47.052;15.462;2023-06-14T01:42:46;19.40;67.80
75931;DHT22;64609;47.052;15.462;2023-06-14T01:45:13;19.40;67.90
75931;DHT22;64609;47.052;15.462;2023-06-14T01:47:39;19.40;68.10
75931;DHT22;64609;47.052;15.462;2023-06-14T01:50:06;19.40;68.10
75931;DHT22;64609;47.052;15.462;2023-06-14T01:52:32;19.50;68.00
75931;DHT22;64609;47.052;15.462;2023-06-14T01:54:57;19.50;68.10
75931;DHT22;64609;47.052;15.462;2023-06-14T01:57:25;19.50;68.20
75931;DHT22;64609;47.052;15.462;2023-06-14T01:59:52;19.40;69.30
75931;DHT22;64609;47.052;15.462;2023-06-14T02:02:18;19.40;68.50
75931;DHT22;64609;47.052;15.462;2023-06-14T02:04:44;19.40;68.10
75931;DHT22;64609;47.052;15.462;2023-06-14T02:07:12;19.40;68.00
75931;DHT22;64609;47.052;15.462;2023-06-14T02:09:38;19.40;68.00
75931;DHT22;64609;47.052;15.462;2023-06-14T02:12:04;19.40;67.80
75931;DHT22;64609;47.052;15.462;2023-06-14T02:14:30;19.40;68.00
75931;DHT22;64609;47.052;15.462;2023-06-14T02:16:56;19.40;67.90
75931;DHT22;64609;47.052;15.462;2023-06-14T02:19:22;19.40;67.60
75931;DHT22;64609;47.052;15.462;2023-06-14T02:21:47;19.40;67.80
75931;DHT22;64609;47.052;15.462;2023-06-14T02:24:13;19.40;67.80
75931;DHT22;64609;47.052;15.462;2023-06-14T02:26:39;19.40;67.80
75931;DHT22;64609;47.052;15.462;2023-06-14T02:29:05;19.30;67.60
75931;DHT22;64609;47.052;15.462;2023-06-14T02:31:32;19.40;67.50
75931;DHT22;64609;47.052;15.462;2023-06-14T02:33:58;19.40;67.50
75931;DHT22;64609;47.052;15.462;2023-06-14T02:36:23;19.30;66.90
75931;DHT22;64609;47.052;15.462;2023-06-14T02:38:50;19.30;66.60
75931;DHT22;64609;47.052;15.462;2023-06-14T02:41:15;19.30;66.50
75931;DHT22;64609;47.052;15.462;2023-06-14T02:43:41;19.30;66.60
75931;DHT22;64609;47.052;15.462;2023-06-14T02:46:07;19.30;66.50
75931;DHT22;64609;47.052;15.462;2023-06-14T02:48:33;19.30;66.20
75931;DHT22;64609;47.052;15.462;2023-06-14T02:50:58;19.30;66.30
75931;DHT22;64609;47.052;15.462;2023-06-14T02:53:24;19.30;66.10
75931;DHT22;64609;47.052;15.462;2023-06-14T02:55:50;19.20;66.10
75931;DHT22;64609;47.052;15.462;2023-06-14T02:58:15;19.20;66.20
75931;DHT22;64609;47.052;15.462;2023-06-14T03:00:42;19.10;66.30
75931;DHT22;64609;47.052;15.462;2023-06-14T03:03:08;19.10;66.60
75931;DHT22;64609;47.052;15.462;2023-06-14T03:05:42;19.10;66.90
75931;DHT22;64609;47.052;15.462;2023-06-14T03:08:11;19.10;66.90
75931;DHT22;64609;47.052;15.462;2023-06-14T03:10:42;19.10;66.80
75931;DHT22;64609;47.052;15.462;2023-06-14T03:13:08;19.10;66.90
75931;DHT22;64609;47.052;15.462;2023-06-14T03:15:34;19.10;66.90
75931;DHT22;64609;47.052;15.462;2023-06-14T03:18:00;19.10;67.20
75931;DHT22;64609;47.052;15.462;2023-06-14T03:20:26;19.10;67.20
75931;DHT22;64609;47.052;15.462;2023-06-14T03:22:54;19.10;67.30
75931;DHT22;64609;47.052;15.462;2023-06-14T03:25:20;18.90;67.50
75931;DHT22;64609;47.052;15.462;2023-06-14T03:27:47;18.90;67.70
75931;DHT22;64609;47.052;15.462;2023-06-14T03:30:13;19.00;68.80
75931;DHT22;64609;47.052;15.462;2023-06-14T03:32:39;19.00;67.50
75931;DHT22;64609;47.052;15.462;2023-06-14T03:35:05;19.00;67.50
75931;DHT22;64609;47.052;15.462;2023-06-14T03:37:31;19.00;67.30
75931;DHT22;64609;47.052;15.462;2023-06-14T03:39:57;19.00;68.50
75931;DHT22;64609;47.052;15.462;2023-06-14T03:42:22;19.00;67.50
75931;DHT22;64609;47.052;15.462;2023-06-14T03:44:48;19.00;67.50
75931;DHT22;64609;47.052;15.462;2023-06-14T03:47:14;19.10;67.70
75931;DHT22;64609;47.052;15.462;2023-06-14T03:49:40;19.10;67.50
75931;DHT22;64609;47.052;15.462;2023-06-14T03:52:06;19.10;67.40
75931;DHT22;64609;47.052;15.462;2023-06-14T03:54:31;19.10;67.50
75931;DHT22;64609;47.052;15.462;2023-06-14T03:56:58;19.10;67.30
75931;DHT22;64609;47.052;15.462;2023-06-14T03:59:24;19.10;67.70
75931;DHT22;64609;47.052;15.462;2023-06-14T04:01:51;19.20;67.40
75931;DHT22;64609;47.052;15.462;2023-06-14T04:04:16;19.20;67.50
75931;DHT22;64609;47.052;15.462;2023-06-14T04:06:42;19.20;67.20
75931;DHT22;64609;47.052;15.462;2023-06-14T04:09:08;19.20;66.90
75931;DHT22;64609;47.052;15.462;2023-06-14T04:11:34;19.30;66.70
75931;DHT22;64609;47.052;15.462;2023-06-14T04:14:01;19.30;66.60
75931;DHT22;64609;47.052;15.462;2023-06-14T04:16:27;19.30;66.40
75931;DHT22;64609;47.052;15.462;2023-06-14T04:18:56;19.30;66.10
75931;DHT22;64609;47.052;15.462;2023-06-14T04:21:23;19.30;66.00
75931;DHT22;64609;47.052;15.462;2023-06-14T04:23:49;19.30;65.90
75931;DHT22;64609;47.052;15.462;2023-06-14T04:26:18;19.30;65.80
75931;DHT22;64609;47.052;15.462;2023-06-14T04:28:45;19.30;65.60
75931;DHT22;64609;47.052;15.462;2023-06-14T04:31:12;19.30;65.70
75931;DHT22;64609;47.052;15.462;2023-06-14T04:33:38;19.40;66.00
75931;DHT22;64609;47.052;15.462;2023-06-14T04:36:12;19.40;65.50
75931;DHT22;64609;47.052;15.462;2023-06-14T04:38:39;19.40;65.00
75931;DHT22;64609;47.052;15.462;2023-06-14T04:41:04;19.40;65.00
75931;DHT22;64609;47.052;15.462;2023-06-14T04:43:31;19.40;65.10
75931;DHT22;64609;47.052;15.462;2023-06-14T04:46:02;19.40;65.30
75931;DHT22;64609;47.052;15.462;2023-06-14T04:48:28;19.40;65.30
75931;DHT22;64609;47.052;15.462;2023-06-14T04:50:54;19.40;65.00
75931;DHT22;64609;47.052;15.462;2023-06-14T04:53:20;19.50;65.10
75931;DHT22;64609;47.052;15.462;2023-06-14T04:55:48;19.50;65.00
75931;DHT22;64609;47.052;15.462;2023-06-14T04:58:14;19.50;64.80
75931;DHT22;64609;47.052;15.462;2023-06-14T05:00:39;19.50;64.70
75931;DHT22;64609;47.052;15.462;2023-06-14T05:03:07;19.60;65.10
75931;DHT22;64609;47.052;15.462;2023-06-14T05:05:34;19.60;64.90
75931;DHT22;64609;47.052;15.462;2023-06-14T05:07:59;19.60;65.10
75931;DHT22;64609;47.052;15.462;2023-06-14T05:10:25;19.60;65.10
75931;DHT22;64609;47.052;15.462;2023-06-14T05:12:51;19.60;64.90
75931;DHT22;64609;47.052;15.462;2023-06-14T05:15:18;19.60;65.10
75931;DHT22;64609;47.052;15.462;2023-06-14T05:17:46;19.60;65.20
75931;DHT22;64609;47.052;15.462;2023-06-14T05:20:18;19.60;65.40
75931;DHT22;64609;47.052;15.462;2023-06-14T05:22:44;19.60;65.60
75931;DHT22;64609;47.052;15.462;2023-06-14T05:25:09;19.60;65.50
75931;DHT22;64609;47.052;15.462;2023-06-14T05:27:35;19.60;65.40
75931;DHT22;64609;47.052;15.462;2023-06-14T05:30:02;19.60;65.50
75931;DHT22;64609;47.052;15.462;2023-06-14T05:32:29;19.60;65.10
75931;DHT22;64609;47.052;15.462;2023-06-14T05:34:55;19.70;65.20
75931;DHT22;64609;47.052;15.462;2023-06-14T05:37:20;19.70;65.20
75931;DHT22;64609;47.052;15.462;2023-06-14T05:39:46;19.70;65.20
75931;DHT22;64609;47.052;15.462;2023-06-14T05:42:12;19.70;64.90
75931;DHT22;64609;47.052;15.462;2023-06-14T05:44:38;19.70;65.20
75931;DHT22;64609;47.052;15.462;2023-06-14T05:47:03;19.70;65.20
75931;DHT22;64609;47.052;15.462;2023-06-14T05:49:29;19.70;65.20
75931;DHT22;64609;47.052;15.462;2023-06-14T05:51:55;19.70;65.30
75931;DHT22;64609;47.052;15.462;2023-06-14T05:54:20;19.70;65.50
75931;DHT22;64609;47.052;15.462;2023-06-14T05:56:46;19.70;65.50
75931;DHT22;64609;47.052;15.462;2023-06-14T05:59:12;19.70;65.30
75931;DHT22;64609;47.052;15.462;2023-06-14T06:01:37;19.70;65.20
75931;DHT22;64609;47.052;15.462;2023-06-14T06:04:05;19.70;65.20
75931;DHT22;64609;47.052;15.462;2023-06-14T06:06:31;19.70;66.10
75931;DHT22;64609;47.052;15.462;2023-06-14T06:08:58;19.50;65.40
75931;DHT22;64609;47.052;15.462;2023-06-14T06:11:24;19.50;65.90
75931;DHT22;64609;47.052;15.462;2023-06-14T06:13:50;19.50;66.50
75931;DHT22;64609;47.052;15.462;2023-06-14T06:16:16;19.60;66.50
75931;DHT22;64609;47.052;15.462;2023-06-14T06:18:41;19.60;66.50
75931;DHT22;64609;47.052;15.462;2023-06-14T06:21:07;19.60;66.50
75931;DHT22;64609;47.052;15.462;2023-06-14T06:23:33;19.60;66.40
75931;DHT22;64609;47.052;15.462;2023-06-14T06:25:58;19.60;67.00
75931;DHT22;64609;47.052;15.462;2023-06-14T06:28:24;19.60;67.30
75931;DHT22;64609;47.052;15.462;2023-06-14T06:30:49;19.50;67.50
75931;DHT22;64609;47.052;15.462;2023-06-14T06:33:16;19.50;67.90
75931;DHT22;64609;47.052;15.462;2023-06-14T06:35:41;19.40;68.00
75931;DHT22;64609;47.052;15.462;2023-06-14T06:38:08;19.40;68.00
75931;DHT22;64609;47.052;15.462;2023-06-14T06:40:35;19.40;68.50
75931;DHT22;64609;47.052;15.462;2023-06-14T06:43:02;19.50;68.90
75931;DHT22;64609;47.052;15.462;2023-06-14T06:45:28;19.60;69.10
75931;DHT22;64609;47.052;15.462;2023-06-14T06:47:54;19.60;69.20
75931;DHT22;64609;47.052;15.462;2023-06-14T06:50:21;19.60;68.30
75931;DHT22;64609;47.052;15.462;2023-06-14T06:52:48;19.50;66.60
75931;DHT22;64609;47.052;15.462;2023-06-14T06:55:14;19.40;66.00
75931;DHT22;64609;47.052;15.462;2023-06-14T06:57:40;19.30;64.80
75931;DHT22;64609;47.052;15.462;2023-06-14T07:00:06;19.20;64.70
75931;DHT22;64609;47.052;15.462;2023-06-14T07:02:36;19.20;64.90
75931;DHT22;64609;47.052;15.462;2023-06-14T07:05:02;19.20;64.50
75931;DHT22;64609;47.052;15.462;2023-06-14T07:07:27;19.20;64.60
75931;DHT22;64609;47.052;15.462;2023-06-14T07:09:53;19.30;65.10
75931;DHT22;64609;47.052;15.462;2023-06-14T07:12:19;19.30;64.70
75931;DHT22;64609;47.052;15.462;2023-06-14T07:14:45;19.40;65.00
75931;DHT22;64609;47.052;15.462;2023-06-14T07:17:11;19.40;64.50
75931;DHT22;64609;47.052;15.462;2023-06-14T07:19:36;19.40;64.70
75931;DHT22;64609;47.052;15.462;2023-06-14T07:22:02;19.50;65.00
75931;DHT22;64609;47.052;15.462;2023-06-14T07:24:27;19.40;65.10
75931;DHT22;64609;47.052;15.462;2023-06-14T07:26:54;19.40;65.30
75931;DHT22;64609;47.052;15.462;2023-06-14T07:29:20;19.40;65.60
75931;DHT22;64609;47.052;15.462;2023-06-14T07:31:46;19.40;65.70
75931;DHT22;64609;47.052;15.462;2023-06-14T07:34:12;19.30;65.90
75931;DHT22;64609;47.052;15.462;2023-06-14T07:36:38;19.30;65.90
75931;DHT22;64609;47.052;15.462;2023-06-14T07:39:04;19.40;66.10
75931;DHT22;64609;47.052;15.462;2023-06-14T07:41:32;19.40;65.70
75931;DHT22;64609;47.052;15.462;2023-06-14T07:43:58;19.30;65.60
75931;DHT22;64609;47.052;15.462;2023-06-14T07:46:23;19.30;65.00
75931;DHT22;64609;47.052;15.462;2023-06-14T07:48:49;19.30;65.40
75931;DHT22;64609;47.052;15.462;2023-06-14T07:51:15;19.20;65.70
75931;DHT22;64609;47.052;15.462;2023-06-14T07:53:40;19.20;65.60
75931;DHT22;64609;47.052;15.462;2023-06-14T07:56:07;19.10;65.60
75931;DHT22;64609;47.052;15.462;2023-06-14T07:58:33;19.10;66.00
75931;DHT22;64609;47.052;15.462;2023-06-14T08:00:58;19.10;65.90
75931;DHT22;64609;47.052;15.462;2023-06-14T08:03:25;19.20;66.10
75931;DHT22;64609;47.052;15.462;2023-06-14T08:05:52;19.20;66.00
75931;DHT22;64609;47.052;15.462;2023-06-14T08:08:17;19.20;64.90
75931;DHT22;64609;47.052;15.462;2023-06-14T08:10:43;19.20;64.90
75931;DHT22;64609;47.052;15.462;2023-06-14T08:13:09;19.20;64.90
75931;DHT22;64609;47.052;15.462;2023-06-14T08:15:35;19.20;65.20
75931;DHT22;64609;47.052;15.462;2023-06-14T08:18:01;19.20;64.90
75931;DHT22;64609;47.052;15.462;2023-06-14T08:20:26;19.20;64.60
75931;DHT22;64609;47.052;15.462;2023-06-14T08:22:52;19.30;64.60
75931;DHT22;64609;47.052;15.462;2023-06-14T08:25:22;19.20;64.30
75931;DHT22;64609;47.052;15.462;2023-06-14T08:27:48;19.20;64.10
75931;DHT22;64609;47.052;15.462;2023-06-14T08:30:15;19.20;64.50
75931;DHT22;64609;47.052;15.462;2023-06-14T08:32:40;19.20;64.90
75931;DHT22;64609;47.052;15.462;2023-06-14T08:35:06;19.20;65.50
75931;DHT22;64609;47.052;15.462;2023-06-14T08:37:32;19.20;65.80
75931;DHT22;64609;47.052;15.462;2023-06-14T08:39:58;19.20;65.90
75931;DHT22;64609;47.052;15.462;2023-06-14T08:42:24;19.20;66.00
75931;DHT22;64609;47.052;15.462;2023-06-14T08:44:50;19.20;66.50
75931;DHT22;64609;47.052;15.462;2023-06-14T08:47:16;19.20;66.60
75931;DHT22;64609;47.052;15.462;2023-06-14T08:49:46;19.20;67.50
75931;DHT22;64609;47.052;15.462;2023-06-14T08:52:13;19.20;68.00
75931;DHT22;64609;47.052;15.462;2023-06-14T08:54:44;19.10;67.80
75931;DHT22;64609;47.052;15.462;2023-06-14T08:57:11;19.00;67.50
75931;DHT22;64609;47.052;15.462;2023-06-14T08:59:46;18.90;67.80
75931;DHT22;64609;47.052;15.462;2023-06-14T09:02:12;18.90;68.50
75931;DHT22;64609;47.052;15.462;2023-06-14T09:04:40;18.90;68.70
75931;DHT22;64609;47.052;15.462;2023-06-14T09:07:06;18.90;69.00
75931;DHT22;64609;47.052;15.462;2023-06-14T09:09:32;19.00;69.20
75931;DHT22;64609;47.052;15.462;2023-06-14T09:11:57;19.20;69.50
75931;DHT22;64609;47.052;15.462;2023-06-14T09:14:24;19.20;69.10
75931;DHT22;64609;47.052;15.462;2023-06-14T09:16:54;19.30;69.40
75931;DHT22;64609;47.052;15.462;2023-06-14T09:19:26;19.40;70.00
75931;DHT22;64609;47.052;15.462;2023-06-14T09:21:52;19.60;69.80
75931;DHT22;64609;47.052;15.462;2023-06-14T09:24:19;19.70;69.30
75931;DHT22;64609;47.052;15.462;2023-06-14T09:26:48;19.80;69.20
75931;DHT22;64609;47.052;15.462;2023-06-14T09:29:16;19.90;69.20
75931;DHT22;64609;47.052;15.462;2023-06-14T09:31:42;19.90;69.20
75931;DHT22;64609;47.052;15.462;2023-06-14T09:34:09;19.90;69.50
75931;DHT22;64609;47.052;15.462;2023-06-14T09:36:34;19.90;69.20
75931;DHT22;64609;47.052;15.462;2023-06-14T09:39:02;19.90;69.40
75931;DHT22;64609;47.052;15.462;2023-06-14T09:41:39;19.90;69.50
75931;DHT22;64609;47.052;15.462;2023-06-14T09:44:06;19.90;69.70
75931;DHT22;64609;47.052;15.462;2023-06-14T09:46:33;19.90;69.40
75931;DHT22;64609;47.052;15.462;2023-06-14T09:48:59;20.00;69.30
75931;DHT22;64609;47.052;15.462;2023-06-14T09:51:26;20.00;69.10
75931;DHT22;64609;47.052;15.462;2023-06-14T09:53:55;20.10;68.80
75931;DHT22;64609;47.052;15.462;2023-06-14T09:56:28;20.20;68.60
75931;DHT22;64609;47.052;15.462;2023-06-14T09:58:57;20.30;68.70
75931;DHT22;64609;47.052;15.462;2023-06-14T10:01:24;20.30;68.60
75931;DHT22;64609;47.052;15.462;2023-06-14T10:04:02;20.40;68.60
75931;DHT22;64609;47.052;15.462;2023-06-14T10:06:29;20.50;68.40
75931;DHT22;64609;47.052;15.462;2023-06-14T10:08:58;20.60;68.30
75931;DHT22;64609;47.052;15.462;2023-06-14T10:11:27;20.60;67.80
75931;DHT22;64609;47.052;15.462;2023-06-14T10:13:57;20.70;67.30
75931;DHT22;64609;47.052;15.462;2023-06-14T10:16:27;20.90;67.30
75931;DHT22;64609;47.052;15.462;2023-06-14T10:24:43;22.10;67.50
75931;DHT22;64609;47.052;15.462;2023-06-14T10:27:09;23.10;64.70
75931;DHT22;64609;47.052;15.462;2023-06-14T10:32:25;24.60;59.60
75931;DHT22;64609;47.052;15.462;2023-06-14T10:37:23;25.80;56.80
75931;DHT22;64609;47.052;15.462;2023-06-14T10:39:50;26.00;55.10
75931;DHT22;64609;47.052;15.462;2023-06-14T10:42:16;26.10;55.20
75931;DHT22;64609;47.052;15.462;2023-06-14T10:44:51;26.40;54.10
75931;DHT22;64609;47.052;15.462;2023-06-14T10:47:30;26.90;51.90
75931;DHT22;64609;47.052;15.462;2023-06-14T10:50:05;27.20;50.80
75931;DHT22;64609;47.052;15.462;2023-06-14T10:52:38;27.30;51.80
75931;DHT22;64609;47.052;15.462;2023-06-14T10:55:08;26.90;50.30
75931;DHT22;64609;47.052;15.462;2023-06-14T10:57:51;26.70;50.20
75931;DHT22;64609;47.052;15.462;2023-06-14T11:00:22;26.30;48.00
75931;DHT22;64609;47.052;15.462;2023-06-14T11:10:59;25.50;50.40
75931;DHT22;64609;47.052;15.462;2023-06-14T11:13:26;25.30;50.50
75931;DHT22;64609;47.052;15.462;2023-06-14T11:15:52;25.10;50.20
75931;DHT22;64609;47.052;15.462;2023-06-14T11:18:23;25.00;52.60
75931;DHT22;64609;47.052;15.462;2023-06-14T11:20:54;24.80;50.80
75931;DHT22;64609;47.052;15.462;2023-06-14T11:23:21;24.50;49.60
75931;DHT22;64609;47.052;15.462;2023-06-14T11:25:52;24.40;50.80
75931;DHT22;64609;47.052;15.462;2023-06-14T11:28:17;24.50;50.70
75931;DHT22;64609;47.052;15.462;2023-06-14T11:30:45;24.20;48.80
75931;DHT22;64609;47.052;15.462;2023-06-14T11:33:17;24.20;51.10
75931;DHT22;64609;47.052;15.462;2023-06-14T11:35:44;24.20;52.50
75931;DHT22;64609;47.052;15.462;2023-06-14T11:38:11;23.90;52.50
75931;DHT22;64609;47.052;15.462;2023-06-14T11:40:38;23.80;51.60
75931;DHT22;64609;47.052;15.462;2023-06-14T11:43:03;23.80;51.80
75931;DHT22;64609;47.052;15.462;2023-06-14T11:45:30;23.80;50.90
75931;DHT22;64609;47.052;15.462;2023-06-14T11:47:57;23.80;52.90
75931;DHT22;64609;47.052;15.462;2023-06-14T11:50:23;23.70;54.70
75931;DHT22;64609;47.052;15.462;2023-06-14T11:52:59;23.60;54.80
75931;DHT22;64609;47.052;15.462;2023-06-14T11:55:29;23.50;55.20
75931;DHT22;64609;47.052;15.462;2023-06-14T11:57:54;23.40;54.40
75931;DHT22;64609;47.052;15.462;2023-06-14T12:00:25;23.30;53.20
75931;DHT22;64609;47.052;15.462;2023-06-14T12:02:54;23.20;53.90
75931;DHT22;64609;47.052;15.462;2023-06-14T12:05:22;23.10;53.90
75931;DHT22;64609;47.052;15.462;2023-06-14T12:07:48;23.00;54.50
75931;DHT22;64609;47.052;15.462;2023-06-14T12:10:14;23.10;56.00
75931;DHT22;64609;47.052;15.462;2023-06-14T12:12:40;23.30;55.90
75931;DHT22;64609;47.052;15.462;2023-06-14T12:15:07;23.40;55.50
75931;DHT22;64609;47.052;15.462;2023-06-14T12:17:34;23.50;55.10
75931;DHT22;64609;47.052;15.462;2023-06-14T12:20:06;23.40;54.00
75931;DHT22;64609;47.052;15.462;2023-06-14T12:22:57;23.30;53.90
75931;DHT22;64609;47.052;15.462;2023-06-14T12:25:34;23.30;53.50
75931;DHT22;64609;47.052;15.462;2023-06-14T12:28:08;23.10;52.80
75931;DHT22;64609;47.052;15.462;2023-06-14T12:30:36;23.10;54.60
75931;DHT22;64609;47.052;15.462;2023-06-14T12:33:02;23.20;55.90
75931;DHT22;64609;47.052;15.462;2023-06-14T12:35:28;23.30;56.90
75931;DHT22;64609;47.052;15.462;2023-06-14T12:37:54;23.40;55.80
75931;DHT22;64609;47.052;15.462;2023-06-14T12:40:19;23.50;55.30
75931;DHT22;64609;47.052;15.462;2023-06-14T12:42:45;23.40;53.90
75931;DHT22;64609;47.052;15.462;2023-06-14T12:45:14;23.50;55.10
75931;DHT22;64609;47.052;15.462;2023-06-14T12:47:40;23.50;54.30
75931;DHT22;64609;47.052;15.462;2023-06-14T12:50:06;23.50;54.60
75931;DHT22;64609;47.052;15.462;2023-06-14T12:52:32;23.50;53.80
75931;DHT22;64609;47.052;15.462;2023-06-14T12:55:04;23.40;54.10
75931;DHT22;64609;47.052;15.462;2023-06-14T12:57:30;23.50;54.50
75931;DHT22;64609;47.052;15.462;2023-06-14T12:59:56;23.60;55.20
75931;DHT22;64609;47.052;15.462;2023-06-14T13:02:22;23.80;54.50
75931;DHT22;64609;47.052;15.462;2023-06-14T13:04:49;24.00;54.50
75931;DHT22;64609;47.052;15.462;2023-06-14T13:07:15;24.10;54.10
75931;DHT22;64609;47.052;15.462;2023-06-14T13:09:41;24.00;54.50
75931;DHT22;64609;47.052;15.462;2023-06-14T13:12:08;23.90;53.90
75931;DHT22;64609;47.052;15.462;2023-06-14T13:14:36;23.80;53.90
75931;DHT22;64609;47.052;15.462;2023-06-14T13:17:01;23.60;54.30
75931;DHT22;64609;47.052;15.462;2023-06-14T13:19:27;23.60;55.20
75931;DHT22;64609;47.052;15.462;2023-06-14T13:21:53;23.60;55.10
75931;DHT22;64609;47.052;15.462;2023-06-14T13:24:18;23.60;54.80
75931;DHT22;64609;47.052;15.462;2023-06-14T13:26:44;23.50;55.20
75931;DHT22;64609;47.052;15.462;2023-06-14T13:29:10;23.30;54.80
75931;DHT22;64609;47.052;15.462;2023-06-14T13:31:35;23.30;55.30
75931;DHT22;64609;47.052;15.462;2023-06-14T13:34:01;23.20;54.00
75931;DHT22;64609;47.052;15.462;2023-06-14T13:36:27;23.10;55.70
75931;DHT22;64609;47.052;15.462;2023-06-14T13:38:52;23.10;56.60
75931;DHT22;64609;47.052;15.462;2023-06-14T13:41:20;23.10;55.30
75931;DHT22;64609;47.052;15.462;2023-06-14T13:43:45;23.10;55.90
75931;DHT22;64609;47.052;15.462;2023-06-14T13:46:11;23.10;55.60
75931;DHT22;64609;47.052;15.462;2023-06-14T13:48:37;23.10;55.40
75931;DHT22;64609;47.052;15.462;2023-06-14T13:51:02;23.10;55.40
75931;DHT22;64609;47.052;15.462;2023-06-14T13:53:29;23.20;55.50
75931;DHT22;64609;47.052;15.462;2023-06-14T13:55:55;23.20;54.30
75931;DHT22;64609;47.052;15.462;2023-06-14T13:58:21;23.10;55.10
75931;DHT22;64609;47.052;15.462;2023-06-14T14:00:48;23.20;54.90
75931;DHT22;64609;47.052;15.462;2023-06-14T14:03:14;23.30;54.30
75931;DHT22;64609;47.052;15.462;2023-06-14T14:05:39;23.30;54.10
75931;DHT22;64609;47.052;15.462;2023-06-14T14:08:05;23.40;55.60
75931;DHT22;64609;47.052;15.462;2023-06-14T14:10:31;23.40;55.30
75931;DHT22;64609;47.052;15.462;2023-06-14T14:12:57;23.30;54.30
75931;DHT22;64609;47.052;15.462;2023-06-14T14:15:22;23.40;54.30
75931;DHT22;64609;47.052;15.462;2023-06-14T14:17:48;23.50;54.40
75931;DHT22;64609;47.052;15.462;2023-06-14T14:20:14;23.60;54.30
75931;DHT22;64609;47.052;15.462;2023-06-14T14:22:42;23.50;53.50
75931;DHT22;64609;47.052;15.462;2023-06-14T14:25:08;23.40;54.00
75931;DHT22;64609;47.052;15.462;2023-06-14T14:27:34;23.30;54.20
75931;DHT22;64609;47.052;15.462;2023-06-14T14:30:01;23.30;54.20
75931;DHT22;64609;47.052;15.462;2023-06-14T14:32:26;23.20;54.50
75931;DHT22;64609;47.052;15.462;2023-06-14T14:34:52;23.20;54.70
75931;DHT22;64609;47.052;15.462;2023-06-14T14:37:17;23.30;55.10
75931;DHT22;64609;47.052;15.462;2023-06-14T14:39:45;23.40;55.30
75931;DHT22;64609;47.052;15.462;2023-06-14T14:42:11;23.60;55.80
75931;DHT22;64609;47.052;15.462;2023-06-14T14:44:38;23.60;54.20
75931;DHT22;64609;47.052;15.462;2023-06-14T14:47:04;23.30;53.00
75931;DHT22;64609;47.052;15.462;2023-06-14T14:49:31;23.30;54.30
75931;DHT22;64609;47.052;15.462;2023-06-14T14:51:56;23.30;53.90
75931;DHT22;64609;47.052;15.462;2023-06-14T14:54:22;23.40;54.20
75931;DHT22;64609;47.052;15.462;2023-06-14T14:56:49;23.70;54.40
75931;DHT22;64609;47.052;15.462;2023-06-14T14:59:14;23.70;54.00
75931;DHT22;64609;47.052;15.462;2023-06-14T15:01:40;23.60;54.50
75931;DHT22;64609;47.052;15.462;2023-06-14T15:04:06;23.60;54.30
75931;DHT22;64609;47.052;15.462;2023-06-14T15:06:32;23.60;54.10
75931;DHT22;64609;47.052;15.462;2023-06-14T15:09:01;23.70;54.90
75931;DHT22;64609;47.052;15.462;2023-06-14T15:11:26;23.60;54.00
75931;DHT22;64609;47.052;15.462;2023-06-14T15:13:52;23.80;55.00
75931;DHT22;64609;47.052;15.462;2023-06-14T15:16:18;24.00;53.50
75931;DHT22;64609;47.052;15.462;2023-06-14T15:18:44;24.10;53.60
75931;DHT22;64609;47.052;15.462;2023-06-14T15:21:09;24.00;54.00
75931;DHT22;64609;47.052;15.462;2023-06-14T15:23:35;24.00;55.10
75931;DHT22;64609;47.052;15.462;2023-06-14T15:26:01;24.00;54.90
75931;DHT22;64609;47.052;15.462;2023-06-14T15:28:26;24.00;53.70
75931;DHT22;64609;47.052;15.462;2023-06-14T15:30:57;24.00;53.60
75931;DHT22;64609;47.052;15.462;2023-06-14T15:33:23;24.10;54.30
75931;DHT22;64609;47.052;15.462;2023-06-14T15:35:49;24.10;54.70